createdAt,value
2022-12-06T00:02:14.861Z,2.80
2022-12-06T00:05:21.508Z,2.75
2022-12-06T00:08:27.138Z,3.20
2022-12-06T00:11:34.985Z,3.47
2022-12-06T00:14:39.970Z,2.37
2022-12-06T00:17:45.910Z,3.15
2022-12-06T00:20:50.998Z,2.77
2022-12-06T00:23:59.380Z,3.17
2022-12-06T00:27:04.758Z,3.33
2022-12-06T00:30:10.627Z,2.83
2022-12-06T00:33:16.685Z,2.90
2022-12-06T00:36:25.858Z,3.90
2022-12-06T00:39:33.426Z,3.35
2022-12-06T00:42:39.186Z,4.78
2022-12-06T00:45:43.880Z,3.75
2022-12-06T00:48:49.316Z,2.47
2022-12-06T00:51:55.500Z,3.35
2022-12-06T00:55:01.515Z,2.77
2022-12-06T00:58:00.544Z,4.55
2022-12-06T01:04:07.199Z,2.98
2022-12-06T01:07:12.475Z,2.70
2022-12-06T01:10:18.346Z,2.22
2022-12-06T01:13:24.190Z,3.15
2022-12-06T01:16:34.455Z,3.30
2022-12-06T01:19:41.057Z,2.60
2022-12-06T01:22:46.250Z,3.10
2022-12-06T01:25:51.891Z,3.42
2022-12-06T01:28:57.457Z,2.10
2022-12-06T01:32:02.389Z,2.60
2022-12-06T01:35:08.322Z,3.42
2022-12-06T01:38:15.012Z,2.27
2022-12-06T01:41:20.970Z,2.55
2022-12-06T01:44:59.690Z,2.22
2022-12-06T01:48:05.384Z,3.70
2022-12-06T01:51:11.172Z,3.12
2022-12-06T01:54:18.274Z,3.00
2022-12-06T01:57:25.120Z,2.87
2022-12-06T02:00:30.819Z,3.02
2022-12-06T02:03:38.450Z,2.80
2022-12-06T02:06:44.930Z,3.27
2022-12-06T02:09:50.519Z,3.35
2022-12-06T02:12:56.083Z,3.30
2022-12-06T02:16:24.402Z,2.62
2022-12-06T02:19:53.336Z,2.83
2022-12-06T02:23:40.999Z,2.52
2022-12-06T02:27:03.380Z,2.90
2022-12-06T02:30:28.627Z,3.20
2022-12-06T02:33:41.705Z,3.25
2022-12-06T02:37:06.513Z,3.87
2022-12-06T02:40:21.520Z,2.95
2022-12-06T02:43:31.540Z,2.92
2022-12-06T02:49:42.589Z,2.98
2022-12-06T02:52:48.429Z,3.95
2022-12-06T02:55:54.515Z,4.50
2022-12-06T02:59:00.403Z,3.75
2022-12-06T03:02:10.729Z,3.50
2022-12-06T03:05:24.349Z,3.65
2022-12-06T03:08:33.978Z,3.83
2022-12-06T03:11:44.046Z,3.40
2022-12-06T03:14:53.868Z,3.47
2022-12-06T03:18:09.225Z,3.85
2022-12-06T03:21:25.704Z,3.12
2022-12-06T03:24:31.229Z,3.33
2022-12-06T03:27:37.361Z,3.90
2022-12-06T03:30:42.387Z,4.28
2022-12-06T03:33:48.843Z,2.77
2022-12-06T03:36:48.235Z,3.45
2022-12-06T03:39:57.231Z,3.55
2022-12-06T03:43:03.261Z,3.83
2022-12-06T03:46:16.119Z,4.35
2022-12-06T03:49:26.655Z,3.42
2022-12-06T03:52:33.046Z,3.30
2022-12-06T03:55:39.063Z,3.75
2022-12-06T03:58:44.572Z,3.58
2022-12-06T04:01:49.300Z,2.98
2022-12-06T04:04:56.360Z,3.70
2022-12-06T04:08:01.823Z,3.62
2022-12-06T04:11:07.565Z,3.20
2022-12-06T04:14:13.033Z,3.40
2022-12-06T04:17:36.944Z,3.85
2022-12-06T04:21:00.772Z,2.92
2022-12-06T04:24:07.443Z,3.85
2022-12-06T04:27:30.728Z,2.52
2022-12-06T04:30:54.069Z,3.80
2022-12-06T04:34:17.780Z,4.28
2022-12-06T04:37:40.472Z,1.70
2022-12-06T04:40:40.035Z,2.25
2022-12-06T04:43:51.951Z,2.85
2022-12-06T04:46:58.827Z,2.80
2022-12-06T04:50:04.949Z,2.15
2022-12-06T04:53:09.928Z,2.58
2022-12-06T04:56:15.084Z,2.85
2022-12-06T04:59:21.335Z,3.55
2022-12-06T05:02:28.451Z,2.90
2022-12-06T05:05:33.374Z,2.08
2022-12-06T05:08:38.899Z,2.70
2022-12-06T05:11:47.714Z,2.62
2022-12-06T05:14:54.017Z,3.10
2022-12-06T05:17:53.231Z,2.70
2022-12-06T05:20:46.408Z,2.70
2022-12-06T05:23:52.110Z,3.67
2022-12-06T05:26:58.512Z,3.00
2022-12-06T05:29:57.949Z,3.25
2022-12-06T05:33:03.144Z,3.45
2022-12-06T05:36:08.384Z,3.87
2022-12-06T05:39:15.001Z,3.33
2022-12-06T05:42:22.423Z,2.52
2022-12-06T05:45:27.477Z,2.92
2022-12-06T05:48:32.767Z,2.60
2022-12-06T05:51:38.871Z,2.72
2022-12-06T05:54:43.894Z,2.90
2022-12-06T05:57:50.306Z,2.67
2022-12-06T06:00:56.025Z,4.37
2022-12-06T06:04:01.833Z,3.40
2022-12-06T06:07:07.950Z,4.15
2022-12-06T06:10:13.333Z,3.40
2022-12-06T06:13:19.124Z,4.45
2022-12-06T06:16:25.195Z,3.10
2022-12-06T06:19:30.806Z,3.05
2022-12-06T06:22:36.802Z,3.77
2022-12-06T06:25:42.977Z,3.92
2022-12-06T06:28:47.822Z,3.90
2022-12-06T06:31:53.636Z,5.83
2022-12-06T06:34:59.270Z,4.35
2022-12-06T06:38:04.677Z,2.87
2022-12-06T06:41:11.051Z,3.22
2022-12-06T06:44:16.863Z,4.78
2022-12-06T06:47:23.381Z,8.90
2022-12-06T06:50:29.019Z,3.10
2022-12-06T06:53:34.752Z,5.62
2022-12-06T06:56:40.223Z,7.25
2022-12-06T06:59:45.860Z,8.10
2022-12-06T07:02:50.978Z,4.08
2022-12-06T07:05:57.091Z,3.30
2022-12-06T07:09:04.427Z,7.75
2022-12-06T07:12:10.148Z,4.03
2022-12-06T07:15:09.601Z,4.60
2022-12-06T07:18:16.269Z,4.75
2022-12-06T07:21:22.551Z,4.50
2022-12-06T07:24:27.426Z,8.85
2022-12-06T07:27:32.488Z,11.45
2022-12-06T07:30:39.271Z,9.78
2022-12-06T07:33:45.863Z,3.33
2022-12-06T07:36:51.481Z,5.12
2022-12-06T07:39:57.996Z,15.90
2022-12-06T08:24:11.038Z,4.97
2022-12-06T08:27:17.112Z,5.33
2022-12-06T08:30:16.790Z,7.65
2022-12-06T08:33:03.179Z,5.25
2022-12-06T08:35:58.055Z,8.18
2022-12-06T08:38:52.422Z,5.28
2022-12-06T08:42:07.776Z,6.63
2022-12-06T08:45:13.459Z,4.83
2022-12-06T08:48:18.991Z,5.95
2022-12-06T08:51:25.318Z,3.92
2022-12-06T08:54:32.682Z,6.45
2022-12-06T08:57:38.296Z,3.55
2022-12-06T09:00:44.157Z,3.75
2022-12-06T09:03:53.683Z,3.05
2022-12-06T09:06:59.047Z,4.08
2022-12-06T09:10:07.417Z,5.10
2022-12-06T09:13:13.974Z,5.08
2022-12-06T09:16:29.527Z,3.52
2022-12-06T09:19:35.646Z,3.65
2022-12-06T09:22:41.458Z,2.45
2022-12-06T09:25:47.023Z,2.47
2022-12-06T09:28:56.469Z,2.47
2022-12-06T09:32:01.457Z,3.60
2022-12-06T09:35:12.306Z,2.83
2022-12-06T09:38:07.422Z,5.05
2022-12-06T09:41:40.359Z,3.05
2022-12-06T09:45:26.369Z,3.58
2022-12-06T09:49:15.784Z,3.02
2022-12-06T09:52:30.476Z,2.40
2022-12-06T09:56:02.432Z,2.75
2022-12-06T09:59:30.170Z,3.22
2022-12-06T10:03:23.970Z,4.10
2022-12-06T10:06:36.773Z,3.37
2022-12-06T10:10:06.546Z,3.33
2022-12-06T10:13:50.807Z,3.40
2022-12-06T10:17:28.641Z,4.00
2022-12-06T10:20:51.184Z,2.72
2022-12-06T10:24:23.568Z,5.12
2022-12-06T10:27:57.065Z,2.77
2022-12-06T10:31:11.174Z,2.60
2022-12-06T10:34:30.041Z,1.80
2022-12-06T10:37:52.461Z,2.33
2022-12-06T10:41:11.673Z,2.70
2022-12-06T10:44:26.700Z,2.30
2022-12-06T10:47:51.803Z,4.87
2022-12-06T10:50:57.555Z,3.87
2022-12-06T10:54:07.946Z,3.17
2022-12-06T10:57:16.882Z,2.70
2022-12-06T11:00:38.502Z,3.17
2022-12-06T11:04:02.656Z,3.37
2022-12-06T11:07:11.036Z,2.98
2022-12-06T11:10:15.331Z,1.90
2022-12-06T11:13:57.345Z,2.75
2022-12-06T11:17:33.532Z,1.67
2022-12-06T11:20:44.311Z,2.98
2022-12-06T11:24:16.507Z,1.47
2022-12-06T11:27:29.655Z,2.10
2022-12-06T11:30:34.885Z,2.58
2022-12-06T11:33:41.957Z,3.60
2022-12-06T11:36:48.043Z,2.62
2022-12-06T11:39:54.176Z,1.80
2022-12-06T11:43:00.332Z,1.40
2022-12-06T11:46:06.728Z,1.40
2022-12-06T11:49:19.006Z,1.30
2022-12-06T11:52:39.921Z,1.82
2022-12-06T11:55:57.101Z,3.15
2022-12-06T11:59:29.378Z,3.08
2022-12-06T12:02:46.097Z,3.98
2022-12-06T12:05:53.112Z,3.72
2022-12-06T12:09:12.822Z,2.20
2022-12-06T12:12:25.038Z,5.87
2022-12-06T12:15:34.143Z,2.90
2022-12-06T12:18:44.020Z,2.72
2022-12-06T12:21:56.214Z,3.52
2022-12-06T12:25:18.792Z,4.95
2022-12-06T12:28:17.561Z,8.30
2022-12-06T12:31:37.703Z,4.62
2022-12-06T12:34:44.557Z,9.53
2022-12-06T12:37:49.500Z,2.58
2022-12-06T12:41:07.891Z,3.17
2022-12-06T12:44:37.173Z,7.58
2022-12-06T12:47:33.258Z,3.52
2022-12-06T12:50:38.691Z,4.72
2022-12-06T12:53:53.313Z,3.47
2022-12-06T12:57:00.075Z,7.35
2022-12-06T13:00:06.534Z,2.98
2022-12-06T13:03:49.362Z,2.30
2022-12-06T13:06:46.116Z,1.95
2022-12-06T13:10:20.118Z,2.10
2022-12-06T13:13:34.456Z,2.50
2022-12-06T13:16:46.552Z,2.77
2022-12-06T13:19:54.452Z,5.10
2022-12-06T13:22:53.933Z,9.18
2022-12-06T13:26:10.176Z,7.58
2022-12-06T13:29:23.504Z,7.78
2022-12-06T13:32:33.469Z,7.80
2022-12-06T13:35:52.973Z,9.88
2022-12-06T13:38:59.047Z,37.30
2022-12-06T13:42:27.454Z,3.27
2022-12-06T13:45:51.871Z,13.08
2022-12-06T19:20:54.361Z,11.40
2022-12-06T19:24:01.161Z,8.85
2022-12-06T19:27:10.523Z,4.03
2022-12-06T19:30:16.617Z,5.67
2022-12-06T19:33:22.853Z,5.58
2022-12-06T19:36:42.684Z,5.33
2022-12-06T19:39:41.780Z,7.42
2022-12-06T19:43:06.535Z,5.97
2022-12-06T19:46:15.904Z,7.53
2022-12-06T19:49:21.428Z,7.42
2022-12-06T19:52:30.845Z,10.90
2022-12-06T19:55:33.875Z,7.05
2022-12-06T19:58:39.238Z,6.00
2022-12-06T20:01:44.923Z,14.70
2022-12-06T20:04:46.362Z,14.20
2022-12-06T20:07:52.136Z,8.93
2022-12-06T20:10:57.497Z,13.38
2022-12-06T20:14:03.049Z,8.65
2022-12-06T20:17:08.407Z,10.32
2022-12-06T20:20:13.656Z,10.00
2022-12-06T20:23:20.765Z,9.38
2022-12-06T20:26:26.799Z,13.65
2022-12-06T20:29:33.742Z,10.82
2022-12-06T20:32:39.183Z,13.32
2022-12-06T20:35:44.211Z,14.75
2022-12-06T20:38:49.667Z,11.75
2022-12-06T20:41:54.688Z,11.88
2022-12-06T20:45:01.177Z,27.98
2022-12-06T20:48:08.310Z,18.98
2022-12-06T20:51:14.456Z,15.58
2022-12-06T20:54:14.252Z,37.23
2022-12-06T20:57:06.463Z,27.05
2022-12-06T21:00:12.348Z,29.25
2022-12-06T21:03:18.301Z,22.73
2022-12-06T21:06:25.044Z,11.90
2022-12-06T21:09:30.554Z,39.88
2022-12-06T21:12:36.706Z,16.15
2022-12-06T21:15:41.855Z,23.98
2022-12-06T21:18:46.703Z,17.85
2022-12-06T21:21:54.363Z,29.50
2022-12-06T21:25:01.574Z,33.28
2022-12-06T21:28:07.341Z,28.83
2022-12-06T21:31:12.933Z,24.18
2022-12-06T21:34:18.636Z,21.77
2022-12-06T21:37:23.791Z,27.40
2022-12-06T21:40:28.800Z,14.10
2022-12-06T21:43:34.862Z,10.65
2022-12-06T21:46:41.200Z,13.95
2022-12-06T21:49:46.516Z,13.03
2022-12-06T21:52:52.065Z,11.60
2022-12-06T21:55:57.352Z,15.43
2022-12-06T21:59:02.947Z,13.48
2022-12-06T22:02:02.179Z,15.75
2022-12-06T22:05:10.162Z,10.40
2022-12-06T22:08:19.410Z,18.45
2022-12-06T22:11:30.142Z,10.08
2022-12-06T22:14:35.941Z,7.55
2022-12-06T22:17:42.024Z,8.98
2022-12-06T22:20:47.735Z,9.60
2022-12-06T22:23:53.239Z,10.48
2022-12-06T22:26:59.502Z,15.25
2022-12-06T22:30:04.750Z,7.05
2022-12-06T22:33:10.048Z,6.80
2022-12-06T22:36:15.232Z,11.80
2022-12-06T22:39:21.581Z,9.13
2022-12-06T22:42:28.284Z,6.62
2022-12-06T22:45:33.468Z,10.82
2022-12-06T22:48:39.509Z,12.47
2022-12-06T22:51:51.096Z,13.18
2022-12-06T22:54:56.785Z,12.93
2022-12-06T22:58:01.826Z,17.73
2022-12-06T23:01:07.137Z,8.85
2022-12-06T23:04:13.777Z,15.78
2022-12-06T23:07:18.622Z,19.02
2022-12-06T23:10:17.938Z,30.97
2022-12-06T23:13:03.901Z,25.62
2022-12-06T23:16:03.108Z,20.82
2022-12-06T23:19:02.425Z,14.03
2022-12-06T23:22:07.912Z,24.70
2022-12-06T23:25:13.540Z,20.52
2022-12-06T23:28:18.265Z,10.15
2022-12-06T23:31:35.281Z,17.55
2022-12-06T23:34:41.177Z,9.35
2022-12-06T23:37:47.770Z,11.50
2022-12-06T23:40:53.306Z,21.60
2022-12-06T23:43:59.080Z,27.93
2022-12-06T23:47:04.468Z,12.63
2022-12-06T23:50:09.518Z,13.62
2022-12-06T23:53:14.494Z,10.08
2022-12-06T23:56:30.437Z,7.85
2022-12-06T23:59:35.409Z,5.78
